BRU925 UMMS-URSS
Flight info
| Callsign | BRU925 |
|---|---|
| Flight time | 3h 45m |
| Altitude | 37000 |
| Route | SORFO2G SORFO L979 ASKIL L736 OLOPI DCT DOSAG M56 ABAGI B105 NIMTA/K0833F360 B105 NATIT/K0833F370 DCT MOLED N50 LIDUS/K0843F380 G242 ZG/K0846F370 DCT ITAKA/K0852F380 DCT OBBUD DCT AMKOL DCT GOTIK DCT MEMZA DCT VENFO DCT BINOL BINOL1K |
| Aircraft | B738/M-SDE2E3FGHIRWXY/LB1 |
Departure
| Time | 2026-05-07 19:31 |
|---|---|
| Airport | Minsk National Airport (UMMS) |
Arrival
| Time | 2026-05-07 23:16 |
|---|---|
| Airport | Sochi International Airport (URSS) |
| Time | Latitude | Longitude | Altitude | Speed | Heading |
|---|---|---|---|---|---|
| 2026-05-07 19:03 | 53.88882 | 28.03507 | 675 ft | 0 kts | 329° |
| 2026-05-07 19:19 | 53.88882 | 28.03508 | 675 ft | 1 kts | 329° |
| 2026-05-07 19:19 | 53.88868 | 28.03519 | 675 ft | 2 kts | 330° |
| 2026-05-07 19:19 | 53.88857 | 28.03531 | 675 ft | 2 kts | 328° |
| 2026-05-07 19:20 | 53.88845 | 28.03546 | 675 ft | 1 kts | 314° |
| 2026-05-07 19:20 | 53.88837 | 28.03565 | 675 ft | 2 kts | 284° |
| 2026-05-07 19:20 | 53.88837 | 28.03590 | 675 ft | 2 kts | 250° |
| 2026-05-07 19:20 | 53.88843 | 28.03607 | 675 ft | 1 kts | 223° |
| 2026-05-07 19:21 | 53.88844 | 28.03609 | 675 ft | 0 kts | 222° |
| 2026-05-07 19:23 | 53.88843 | 28.03607 | 675 ft | 1 kts | 222° |
| 2026-05-07 19:23 | 53.88823 | 28.03576 | 675 ft | 6 kts | 225° |
| 2026-05-07 19:23 | 53.88781 | 28.03491 | 675 ft | 12 kts | 230° |
| 2026-05-07 19:24 | 53.88717 | 28.03363 | 675 ft | 13 kts | 230° |
| 2026-05-07 19:24 | 53.88651 | 28.03307 | 675 ft | 12 kts | 151° |
| 2026-05-07 19:24 | 53.88586 | 28.03436 | 675 ft | 16 kts | 74° |
| 2026-05-07 19:24 | 53.88662 | 28.03604 | 675 ft | 21 kts | 49° |
| 2026-05-07 19:25 | 53.88771 | 28.03813 | 675 ft | 25 kts | 49° |
| 2026-05-07 19:25 | 53.88894 | 28.04053 | 675 ft | 27 kts | 49° |
| 2026-05-07 19:25 | 53.89015 | 28.04283 | 675 ft | 26 kts | 48° |
| 2026-05-07 19:25 | 53.89146 | 28.04536 | 675 ft | 29 kts | 48° |
| 2026-05-07 19:26 | 53.89241 | 28.04633 | 675 ft | 16 kts | 332° |
| 2026-05-07 19:26 | 53.89337 | 28.04651 | 675 ft | 15 kts | 10° |
| 2026-05-07 19:26 | 53.89437 | 28.04545 | 675 ft | 20 kts | 319° |
| 2026-05-07 19:26 | 53.89558 | 28.04363 | 675 ft | 25 kts | 319° |
| 2026-05-07 19:27 | 53.89706 | 28.04145 | 675 ft | 30 kts | 318° |
| 2026-05-07 19:27 | 53.89870 | 28.03900 | 675 ft | 30 kts | 318° |
| 2026-05-07 19:27 | 53.90026 | 28.03668 | 675 ft | 29 kts | 319° |
| 2026-05-07 19:27 | 53.90196 | 28.03417 | 675 ft | 34 kts | 319° |
| 2026-05-07 19:28 | 53.90334 | 28.03215 | 675 ft | 20 kts | 319° |
| 2026-05-07 19:28 | 53.90443 | 28.03195 | 675 ft | 20 kts | 46° |
| 2026-05-07 19:28 | 53.90492 | 28.03377 | 675 ft | 17 kts | 124° |
| 2026-05-07 19:28 | 53.90437 | 28.03460 | 675 ft | 0 kts | 139° |
| 2026-05-07 19:29 | 53.90429 | 28.03473 | 675 ft | 7 kts | 139° |
| 2026-05-07 19:30 | 53.90227 | 28.03771 | 675 ft | 72 kts | 138° |
| 2026-05-07 19:30 | 53.89693 | 28.04574 | 675 ft | 130 kts | 140° |
| 2026-05-07 19:30 | 53.88885 | 28.05774 | 713 ft | 173 kts | 138° |
| 2026-05-07 19:30 | 53.87933 | 28.07142 | 1054 ft | 190 kts | 140° |
| 2026-05-07 19:31 | 53.86928 | 28.08545 | 1786 ft | 189 kts | 139° |
| 2026-05-07 19:31 | 53.85912 | 28.10096 | 2289 ft | 201 kts | 134° |
| 2026-05-07 19:31 | 53.84881 | 28.11729 | 2777 ft | 210 kts | 133° |
| 2026-05-07 19:31 | 53.84128 | 28.13892 | 3092 ft | 224 kts | 97° |
| 2026-05-07 19:32 | 53.84342 | 28.16485 | 3474 ft | 233 kts | 59° |
| 2026-05-07 19:32 | 53.85446 | 28.18567 | 3883 ft | 246 kts | 36° |
| 2026-05-07 19:32 | 53.86814 | 28.20454 | 4319 ft | 263 kts | 39° |
| 2026-05-07 19:32 | 53.88179 | 28.22660 | 4908 ft | 274 kts | 44° |
| 2026-05-07 19:33 | 53.89472 | 28.25016 | 5555 ft | 281 kts | 46° |
| 2026-05-07 19:33 | 53.90794 | 28.27528 | 6256 ft | 286 kts | 46° |
| 2026-05-07 19:33 | 53.92110 | 28.30033 | 6934 ft | 291 kts | 46° |
| 2026-05-07 19:33 | 53.93472 | 28.32609 | 7646 ft | 295 kts | 46° |
| 2026-05-07 19:34 | 53.94853 | 28.35206 | 8333 ft | 300 kts | 45° |
| 2026-05-07 19:34 | 53.96249 | 28.37834 | 9044 ft | 303 kts | 46° |
| 2026-05-07 19:34 | 53.97669 | 28.40516 | 9724 ft | 307 kts | 46° |
| 2026-05-07 19:34 | 53.99092 | 28.43203 | 10305 ft | 314 kts | 46° |
| 2026-05-07 19:35 | 54.00595 | 28.46043 | 10678 ft | 330 kts | 46° |
| 2026-05-07 19:35 | 54.02169 | 28.49020 | 11043 ft | 346 kts | 46° |
| 2026-05-07 19:35 | 54.03817 | 28.52134 | 11385 ft | 361 kts | 46° |
| 2026-05-07 19:35 | 54.05536 | 28.55387 | 11696 ft | 378 kts | 46° |
| 2026-05-07 19:36 | 54.07338 | 28.58797 | 12079 ft | 391 kts | 46° |
| 2026-05-07 19:36 | 54.09154 | 28.62236 | 12563 ft | 396 kts | 46° |
| 2026-05-07 19:36 | 54.10992 | 28.65718 | 13068 ft | 401 kts | 47° |
| 2026-05-07 19:36 | 54.12870 | 28.69280 | 13589 ft | 403 kts | 47° |
| 2026-05-07 19:37 | 54.14727 | 28.72805 | 14106 ft | 407 kts | 46° |
| 2026-05-07 19:37 | 54.16654 | 28.76467 | 14652 ft | 413 kts | 46° |
| 2026-05-07 19:37 | 54.18561 | 28.80097 | 15199 ft | 415 kts | 46° |
| 2026-05-07 19:37 | 54.20509 | 28.83813 | 15802 ft | 419 kts | 47° |
| 2026-05-07 19:38 | 54.22429 | 28.87487 | 16389 ft | 423 kts | 46° |
| 2026-05-07 19:38 | 54.24403 | 28.91268 | 16982 ft | 428 kts | 47° |
| 2026-05-07 19:38 | 54.26387 | 28.95112 | 17581 ft | 432 kts | 48° |
| 2026-05-07 19:38 | 54.28184 | 28.99167 | 18210 ft | 436 kts | 56° |
| 2026-05-07 19:39 | 54.29619 | 29.03777 | 18857 ft | 440 kts | 68° |
| 2026-05-07 19:39 | 54.30553 | 29.08773 | 19513 ft | 442 kts | 76° |
| 2026-05-07 19:39 | 54.31226 | 29.13898 | 20161 ft | 444 kts | 79° |
| 2026-05-07 19:39 | 54.31794 | 29.19030 | 20801 ft | 445 kts | 81° |
| 2026-05-07 19:40 | 54.32327 | 29.24253 | 21450 ft | 446 kts | 81° |
| 2026-05-07 19:40 | 54.32843 | 29.29448 | 22098 ft | 447 kts | 81° |
| 2026-05-07 19:40 | 54.33366 | 29.34720 | 22756 ft | 447 kts | 81° |
| 2026-05-07 19:40 | 54.33887 | 29.39918 | 23404 ft | 446 kts | 81° |
| 2026-05-07 19:41 | 54.34413 | 29.45097 | 24070 ft | 445 kts | 81° |
| 2026-05-07 19:41 | 54.34949 | 29.50338 | 24747 ft | 444 kts | 81° |
| 2026-05-07 19:41 | 54.35485 | 29.55537 | 25430 ft | 442 kts | 81° |
| 2026-05-07 19:41 | 54.36014 | 29.60666 | 26109 ft | 439 kts | 81° |
| 2026-05-07 19:42 | 54.36540 | 29.65784 | 26789 ft | 436 kts | 82° |
| 2026-05-07 19:42 | 54.37060 | 29.70851 | 27481 ft | 432 kts | 83° |
| 2026-05-07 19:42 | 54.37567 | 29.75823 | 28170 ft | 427 kts | 82° |
| 2026-05-07 19:42 | 54.38075 | 29.80816 | 28869 ft | 421 kts | 83° |
| 2026-05-07 19:43 | 54.38536 | 29.85349 | 29525 ft | 415 kts | 83° |
| 2026-05-07 19:43 | 54.39034 | 29.90263 | 30238 ft | 407 kts | 83° |
| 2026-05-07 19:43 | 54.39513 | 29.95015 | 30955 ft | 399 kts | 83° |
| 2026-05-07 19:43 | 54.39981 | 29.99688 | 31290 ft | 400 kts | 83° |
| 2026-05-07 19:44 | 54.40454 | 30.04433 | 31535 ft | 404 kts | 83° |
| 2026-05-07 19:44 | 54.40921 | 30.09138 | 31773 ft | 407 kts | 83° |
| 2026-05-07 19:44 | 54.41401 | 30.14004 | 31978 ft | 412 kts | 83° |
| 2026-05-07 19:44 | 54.41875 | 30.18823 | 32173 ft | 416 kts | 83° |
| 2026-05-07 19:45 | 54.42361 | 30.23780 | 32291 ft | 422 kts | 83° |
| 2026-05-07 19:45 | 54.42851 | 30.28803 | 32410 ft | 428 kts | 83° |
| 2026-05-07 19:45 | 54.43343 | 30.33874 | 32521 ft | 434 kts | 83° |
| 2026-05-07 19:45 | 54.43837 | 30.38978 | 32631 ft | 441 kts | 83° |
| 2026-05-07 19:46 | 54.44345 | 30.44246 | 32745 ft | 447 kts | 83° |
| 2026-05-07 19:46 | 54.44854 | 30.49553 | 32859 ft | 453 kts | 83° |
| 2026-05-07 19:46 | 54.45367 | 30.54924 | 33048 ft | 458 kts | 83° |
| 2026-05-07 19:46 | 54.45882 | 30.60330 | 33321 ft | 460 kts | 82° |
| 2026-05-07 19:47 | 54.46391 | 30.65694 | 33599 ft | 462 kts | 83° |
| 2026-05-07 19:47 | 54.46907 | 30.71158 | 33870 ft | 464 kts | 83° |
| 2026-05-07 19:47 | 54.47421 | 30.76647 | 34149 ft | 466 kts | 83° |
| 2026-05-07 19:47 | 54.47928 | 30.82087 | 34421 ft | 467 kts | 83° |
| 2026-05-07 19:48 | 54.48445 | 30.87666 | 34698 ft | 468 kts | 83° |
| 2026-05-07 19:48 | 54.48953 | 30.93183 | 34940 ft | 469 kts | 83° |
| 2026-05-07 19:48 | 54.49459 | 30.98703 | 35245 ft | 467 kts | 83° |
| 2026-05-07 19:48 | 54.49959 | 31.04184 | 35568 ft | 465 kts | 83° |
| 2026-05-07 19:49 | 54.50457 | 31.09683 | 35891 ft | 463 kts | 83° |
| 2026-05-07 19:49 | 54.50935 | 31.15085 | 36214 ft | 462 kts | 83° |
| 2026-05-07 19:49 | 54.51407 | 31.20583 | 36541 ft | 460 kts | 83° |
| 2026-05-07 19:49 | 54.51860 | 31.25950 | 36871 ft | 458 kts | 83° |
| 2026-05-07 19:50 | 54.52776 | 31.36949 | 36916 ft | 467 kts | 83° |
| 2026-05-07 19:50 | 54.53691 | 31.48053 | 36917 ft | 476 kts | 83° |
| 2026-05-07 19:51 | 54.54615 | 31.59373 | 36917 ft | 479 kts | 83° |
| 2026-05-07 19:51 | 54.55531 | 31.70689 | 36917 ft | 477 kts | 84° |
| 2026-05-07 19:52 | 54.56439 | 31.82020 | 36921 ft | 477 kts | 84° |
| 2026-05-07 19:52 | 54.57331 | 31.93282 | 36927 ft | 478 kts | 84° |
| 2026-05-07 19:53 | 54.58219 | 32.04642 | 36925 ft | 476 kts | 83° |
| 2026-05-07 19:53 | 54.59098 | 32.15989 | 36920 ft | 477 kts | 83° |
| 2026-05-07 19:54 | 54.59963 | 32.27311 | 36922 ft | 476 kts | 83° |
| 2026-05-07 19:54 | 54.60810 | 32.38546 | 36918 ft | 476 kts | 83° |
| 2026-05-07 19:55 | 54.61655 | 32.49907 | 36920 ft | 476 kts | 83° |
| 2026-05-07 19:55 | 54.62482 | 32.61166 | 36919 ft | 476 kts | 83° |
| 2026-05-07 19:56 | 54.63295 | 32.72386 | 36915 ft | 475 kts | 84° |
| 2026-05-07 19:56 | 54.64105 | 32.83705 | 36905 ft | 475 kts | 84° |
| 2026-05-07 19:57 | 54.64899 | 32.94951 | 36902 ft | 474 kts | 84° |
| 2026-05-07 19:57 | 54.65688 | 33.06260 | 36893 ft | 473 kts | 83° |
| 2026-05-07 19:58 | 54.66454 | 33.17406 | 36902 ft | 473 kts | 84° |
| 2026-05-07 19:58 | 54.67213 | 33.28606 | 36893 ft | 474 kts | 84° |
| 2026-05-07 19:59 | 54.67965 | 33.39852 | 36901 ft | 472 kts | 83° |
| 2026-05-07 19:59 | 54.68706 | 33.51093 | 36902 ft | 473 kts | 83° |
| 2026-05-07 20:00 | 54.69437 | 33.62345 | 36907 ft | 472 kts | 84° |
| 2026-05-07 20:00 | 54.70157 | 33.73606 | 36906 ft | 472 kts | 84° |
| 2026-05-07 20:01 | 54.70864 | 33.84846 | 36911 ft | 469 kts | 84° |
| 2026-05-07 20:01 | 54.71372 | 33.96106 | 36914 ft | 469 kts | 88° |
| 2026-05-07 20:02 | 54.71619 | 34.07289 | 36916 ft | 468 kts | 89° |
| 2026-05-07 20:02 | 54.71823 | 34.18531 | 36921 ft | 467 kts | 89° |
| 2026-05-07 20:03 | 54.72039 | 34.29732 | 36913 ft | 469 kts | 88° |
| 2026-05-07 20:03 | 54.72267 | 34.40957 | 36922 ft | 467 kts | 88° |
| 2026-05-07 20:04 | 54.72498 | 34.52171 | 36915 ft | 467 kts | 88° |
| 2026-05-07 20:04 | 54.72724 | 34.63403 | 36916 ft | 467 kts | 88° |
| 2026-05-07 20:05 | 54.72941 | 34.74562 | 36920 ft | 467 kts | 89° |
| 2026-05-07 20:05 | 54.73150 | 34.85799 | 36911 ft | 467 kts | 89° |
| 2026-05-07 20:06 | 54.73347 | 34.96940 | 36917 ft | 466 kts | 89° |
| 2026-05-07 20:06 | 54.73534 | 35.08088 | 36917 ft | 464 kts | 89° |
| 2026-05-07 20:07 | 54.73712 | 35.19271 | 36914 ft | 465 kts | 89° |
| 2026-05-07 20:07 | 54.73835 | 35.30389 | 36924 ft | 466 kts | 90° |
| 2026-05-07 20:08 | 54.73853 | 35.41537 | 36924 ft | 464 kts | 90° |
| 2026-05-07 20:08 | 54.73841 | 35.52734 | 36929 ft | 465 kts | 90° |
| 2026-05-07 20:09 | 54.73825 | 35.63917 | 36931 ft | 465 kts | 90° |
| 2026-05-07 20:10 | 54.73796 | 35.80481 | 36935 ft | 464 kts | 91° |
| 2026-05-07 20:10 | 54.73769 | 35.91648 | 36939 ft | 464 kts | 90° |
| 2026-05-07 20:11 | 54.73734 | 36.02735 | 36940 ft | 463 kts | 90° |
| 2026-05-07 20:11 | 54.73690 | 36.13922 | 36938 ft | 464 kts | 90° |
| 2026-05-07 20:12 | 54.73634 | 36.25081 | 36938 ft | 463 kts | 90° |
| 2026-05-07 20:12 | 54.73566 | 36.36171 | 36937 ft | 464 kts | 90° |
| 2026-05-07 20:13 | 54.73486 | 36.47302 | 36936 ft | 463 kts | 90° |
| 2026-05-07 20:13 | 54.73396 | 36.58438 | 36938 ft | 464 kts | 90° |
| 2026-05-07 20:14 | 54.73297 | 36.69590 | 36934 ft | 464 kts | 91° |
| 2026-05-07 20:14 | 54.73199 | 36.80724 | 36935 ft | 462 kts | 91° |
| 2026-05-07 20:15 | 54.73095 | 36.91748 | 36937 ft | 461 kts | 91° |
| 2026-05-07 20:15 | 54.72980 | 37.02871 | 36939 ft | 461 kts | 91° |
| 2026-05-07 20:16 | 54.72855 | 37.13960 | 36926 ft | 462 kts | 91° |
| 2026-05-07 20:16 | 54.72718 | 37.25087 | 36930 ft | 463 kts | 91° |
| 2026-05-07 20:17 | 54.72214 | 37.36106 | 36929 ft | 463 kts | 101° |
| 2026-05-07 20:17 | 54.70216 | 37.46606 | 36942 ft | 460 kts | 113° |
| 2026-05-07 20:18 | 54.67514 | 37.56643 | 36947 ft | 460 kts | 116° |
| 2026-05-07 20:18 | 54.64700 | 37.66509 | 36948 ft | 460 kts | 117° |
| 2026-05-07 20:19 | 54.61882 | 37.76410 | 36950 ft | 459 kts | 116° |
| 2026-05-07 20:19 | 54.59094 | 37.86297 | 36942 ft | 460 kts | 116° |
| 2026-05-07 20:20 | 54.56324 | 37.96164 | 36942 ft | 458 kts | 116° |
| 2026-05-07 20:20 | 54.53555 | 38.06036 | 36944 ft | 458 kts | 116° |
| 2026-05-07 20:21 | 54.50801 | 38.15834 | 36943 ft | 457 kts | 116° |
| 2026-05-07 20:21 | 54.47799 | 38.25481 | 36943 ft | 456 kts | 121° |
| 2026-05-07 20:22 | 54.44401 | 38.34620 | 36943 ft | 457 kts | 123° |
| 2026-05-07 20:22 | 54.40891 | 38.43722 | 36946 ft | 455 kts | 123° |
| 2026-05-07 20:23 | 54.37414 | 38.52776 | 36944 ft | 456 kts | 123° |
| 2026-05-07 20:23 | 54.33947 | 38.61867 | 36940 ft | 456 kts | 122° |
| 2026-05-07 20:24 | 54.32516 | 38.65631 | 36944 ft | 455 kts | 123° |
| 2026-05-07 20:25 | 54.32188 | 38.66494 | 36944 ft | 455 kts | 123° |
| 2026-05-07 20:25 | 54.28747 | 38.75550 | 36942 ft | 455 kts | 123° |
| 2026-05-07 20:26 | 54.25652 | 38.83790 | 36943 ft | 453 kts | 121° |
| 2026-05-07 20:27 | 54.24954 | 38.85871 | 36944 ft | 453 kts | 118° |
| 2026-05-07 20:28 | 54.22734 | 38.95964 | 36944 ft | 455 kts | 102° |
| 2026-05-07 20:28 | 54.21585 | 39.06527 | 36945 ft | 454 kts | 98° |
| 2026-05-07 20:29 | 54.20698 | 39.17168 | 36946 ft | 454 kts | 97° |
| 2026-05-07 20:29 | 54.19809 | 39.27888 | 36946 ft | 455 kts | 97° |
| 2026-05-07 20:30 | 54.18882 | 39.38483 | 36942 ft | 453 kts | 98° |
| 2026-05-07 20:30 | 54.17910 | 39.49134 | 36939 ft | 454 kts | 98° |
| 2026-05-07 20:31 | 54.16918 | 39.59734 | 36946 ft | 453 kts | 98° |
| 2026-05-07 20:31 | 54.15911 | 39.70333 | 36949 ft | 454 kts | 99° |
| 2026-05-07 20:32 | 54.14885 | 39.81007 | 36947 ft | 455 kts | 99° |
| 2026-05-07 20:32 | 54.13853 | 39.91639 | 36947 ft | 456 kts | 99° |
| 2026-05-07 20:33 | 54.12817 | 40.02214 | 36945 ft | 454 kts | 99° |
| 2026-05-07 20:33 | 54.11758 | 40.12833 | 36948 ft | 455 kts | 101° |
| 2026-05-07 20:34 | 54.10226 | 40.23298 | 36948 ft | 455 kts | 106° |
| 2026-05-07 20:34 | 54.08385 | 40.33575 | 36947 ft | 454 kts | 107° |
| 2026-05-07 20:35 | 54.06507 | 40.43835 | 36949 ft | 455 kts | 107° |
| 2026-05-07 20:35 | 54.04657 | 40.54041 | 36947 ft | 455 kts | 106° |
| 2026-05-07 20:36 | 54.02808 | 40.64346 | 36950 ft | 454 kts | 106° |
| 2026-05-07 20:36 | 54.00974 | 40.74611 | 36949 ft | 455 kts | 107° |
| 2026-05-07 20:37 | 53.99140 | 40.84863 | 36954 ft | 454 kts | 107° |
| 2026-05-07 20:37 | 53.97303 | 40.95089 | 36952 ft | 455 kts | 107° |
| 2026-05-07 20:38 | 53.95453 | 41.05358 | 36949 ft | 455 kts | 106° |
| 2026-05-07 20:38 | 53.93705 | 41.15701 | 36954 ft | 454 kts | 104° |
| 2026-05-07 20:39 | 53.92033 | 41.26013 | 36952 ft | 455 kts | 104° |
| 2026-05-07 20:39 | 53.90364 | 41.36274 | 36950 ft | 454 kts | 104° |
| 2026-05-07 20:40 | 53.88661 | 41.46614 | 36959 ft | 453 kts | 104° |
| 2026-05-07 20:40 | 53.86953 | 41.56864 | 36950 ft | 454 kts | 104° |
| 2026-05-07 20:41 | 53.85229 | 41.67125 | 36953 ft | 454 kts | 105° |
| 2026-05-07 20:41 | 53.83495 | 41.77369 | 36957 ft | 454 kts | 105° |
| 2026-05-07 20:42 | 53.81749 | 41.87582 | 36952 ft | 453 kts | 105° |
| 2026-05-07 20:42 | 53.79989 | 41.97802 | 36947 ft | 453 kts | 105° |
| 2026-05-07 20:43 | 53.78218 | 42.08025 | 36951 ft | 453 kts | 105° |
| 2026-05-07 20:43 | 53.76443 | 42.18211 | 36957 ft | 453 kts | 105° |
| 2026-05-07 20:44 | 53.74664 | 42.28370 | 36955 ft | 452 kts | 105° |
| 2026-05-07 20:44 | 53.72879 | 42.38505 | 36949 ft | 452 kts | 105° |
| 2026-05-07 20:45 | 53.71069 | 42.48726 | 36955 ft | 453 kts | 105° |
| 2026-05-07 20:45 | 53.68968 | 42.58734 | 36949 ft | 454 kts | 115° |
| 2026-05-07 20:45 | 53.67314 | 42.63269 | 36953 ft | 454 kts | 127° |
| 2026-05-07 20:46 | 53.65200 | 42.67136 | 36952 ft | 455 kts | 138° |
| 2026-05-07 20:46 | 53.60015 | 42.73266 | 36955 ft | 454 kts | 152° |
| 2026-05-07 20:47 | 53.54308 | 42.77819 | 36957 ft | 454 kts | 158° |
| 2026-05-07 20:47 | 53.48524 | 42.81813 | 36958 ft | 453 kts | 159° |
| 2026-05-07 20:48 | 53.42691 | 42.85810 | 36967 ft | 453 kts | 158° |
| 2026-05-07 20:48 | 53.36851 | 42.89872 | 36973 ft | 452 kts | 158° |
| 2026-05-07 20:49 | 53.31059 | 42.93950 | 36972 ft | 454 kts | 158° |
| 2026-05-07 20:49 | 53.25249 | 42.98063 | 36974 ft | 455 kts | 158° |
| 2026-05-07 20:50 | 53.19440 | 43.02180 | 36974 ft | 454 kts | 158° |
| 2026-05-07 20:50 | 53.13617 | 43.06302 | 36974 ft | 454 kts | 158° |
| 2026-05-07 20:51 | 53.07845 | 43.10502 | 36973 ft | 454 kts | 156° |
| 2026-05-07 20:51 | 53.02104 | 43.14792 | 36975 ft | 452 kts | 156° |
| 2026-05-07 20:52 | 52.96340 | 43.19102 | 36978 ft | 454 kts | 156° |
| 2026-05-07 20:52 | 52.90610 | 43.23357 | 36977 ft | 454 kts | 156° |
| 2026-05-07 20:53 | 52.84818 | 43.27633 | 36976 ft | 456 kts | 156° |
| 2026-05-07 20:53 | 52.78998 | 43.31911 | 36976 ft | 457 kts | 156° |
| 2026-05-07 20:54 | 52.73212 | 43.36149 | 36978 ft | 458 kts | 157° |
| 2026-05-07 20:54 | 52.67381 | 43.40406 | 36976 ft | 458 kts | 156° |
| 2026-05-07 20:55 | 52.61560 | 43.44642 | 36977 ft | 458 kts | 157° |
| 2026-05-07 20:55 | 52.55739 | 43.48865 | 36974 ft | 458 kts | 157° |
| 2026-05-07 20:56 | 52.49932 | 43.53068 | 36974 ft | 460 kts | 156° |
| 2026-05-07 20:56 | 52.44052 | 43.57312 | 36977 ft | 460 kts | 156° |
| 2026-05-07 20:57 | 52.38201 | 43.61521 | 36977 ft | 461 kts | 157° |
| 2026-05-07 20:57 | 52.32357 | 43.65712 | 36977 ft | 462 kts | 158° |
| 2026-05-07 20:58 | 52.26492 | 43.69910 | 36974 ft | 459 kts | 158° |
| 2026-05-07 20:58 | 52.20644 | 43.74083 | 36973 ft | 461 kts | 158° |
| 2026-05-07 20:59 | 52.14747 | 43.78277 | 36975 ft | 462 kts | 157° |
| 2026-05-07 20:59 | 52.08846 | 43.82459 | 36977 ft | 463 kts | 157° |
| 2026-05-07 21:00 | 52.02969 | 43.86617 | 36973 ft | 463 kts | 157° |
| 2026-05-07 21:00 | 51.97080 | 43.90769 | 36972 ft | 464 kts | 157° |
| 2026-05-07 21:01 | 51.91163 | 43.94930 | 36961 ft | 462 kts | 157° |
| 2026-05-07 21:01 | 51.85190 | 43.99116 | 36969 ft | 471 kts | 157° |
| 2026-05-07 21:02 | 51.79151 | 44.03342 | 36973 ft | 479 kts | 157° |
| 2026-05-07 21:02 | 51.73017 | 44.07626 | 36972 ft | 480 kts | 157° |
| 2026-05-07 21:03 | 51.66882 | 44.11895 | 36984 ft | 480 kts | 157° |
| 2026-05-07 21:03 | 51.60768 | 44.16130 | 36985 ft | 480 kts | 157° |
| 2026-05-07 21:03 | 51.57738 | 44.18226 | 36680 ft | 473 kts | 157° |
| 2026-05-07 21:04 | 51.54735 | 44.20299 | 36460 ft | 464 kts | 157° |
| 2026-05-07 21:04 | 51.51794 | 44.22324 | 36239 ft | 463 kts | 157° |
| 2026-05-07 21:04 | 51.48838 | 44.24355 | 36030 ft | 462 kts | 157° |
| 2026-05-07 21:05 | 51.42948 | 44.28393 | 35987 ft | 463 kts | 157° |
| 2026-05-07 21:05 | 51.36982 | 44.32476 | 35985 ft | 466 kts | 157° |
| 2026-05-07 21:06 | 51.31052 | 44.36525 | 35983 ft | 464 kts | 157° |
| 2026-05-07 21:06 | 51.25100 | 44.40578 | 35980 ft | 465 kts | 157° |
| 2026-05-07 21:07 | 51.19099 | 44.44570 | 35968 ft | 471 kts | 159° |
| 2026-05-07 21:07 | 51.12666 | 44.46821 | 35966 ft | 480 kts | 178° |
| 2026-05-07 21:08 | 51.05933 | 44.46538 | 35958 ft | 484 kts | 184° |
| 2026-05-07 21:08 | 50.99272 | 44.45708 | 35958 ft | 481 kts | 185° |
| 2026-05-07 21:09 | 50.92595 | 44.44865 | 35957 ft | 483 kts | 185° |
| 2026-05-07 21:09 | 50.85949 | 44.44114 | 35959 ft | 482 kts | 184° |
| 2026-05-07 21:10 | 50.79239 | 44.43427 | 35966 ft | 483 kts | 184° |
| 2026-05-07 21:10 | 50.72565 | 44.42785 | 35964 ft | 483 kts | 184° |
| 2026-05-07 21:11 | 50.65842 | 44.42155 | 35959 ft | 482 kts | 184° |
| 2026-05-07 21:11 | 50.55822 | 44.41224 | 35951 ft | 482 kts | 184° |
| 2026-05-07 21:12 | 50.49084 | 44.40612 | 35957 ft | 481 kts | 184° |
| 2026-05-07 21:12 | 50.42435 | 44.40008 | 35955 ft | 482 kts | 184° |
| 2026-05-07 21:13 | 50.35706 | 44.39395 | 35959 ft | 482 kts | 184° |
| 2026-05-07 21:13 | 50.29008 | 44.38784 | 35962 ft | 482 kts | 184° |
| 2026-05-07 21:14 | 50.22320 | 44.38179 | 35958 ft | 482 kts | 183° |
| 2026-05-07 21:14 | 50.15608 | 44.37574 | 35959 ft | 483 kts | 184° |
| 2026-05-07 21:15 | 50.08918 | 44.36972 | 35960 ft | 482 kts | 184° |
| 2026-05-07 21:15 | 50.02251 | 44.36376 | 35961 ft | 482 kts | 184° |
| 2026-05-07 21:16 | 49.95533 | 44.35775 | 35961 ft | 483 kts | 184° |
| 2026-05-07 21:16 | 49.88822 | 44.35173 | 35962 ft | 483 kts | 183° |
| 2026-05-07 21:17 | 49.82129 | 44.34578 | 36077 ft | 479 kts | 183° |
| 2026-05-07 21:17 | 49.78812 | 44.34282 | 36462 ft | 473 kts | 183° |
| 2026-05-07 21:17 | 49.75584 | 44.33991 | 36861 ft | 468 kts | 183° |
| 2026-05-07 21:18 | 49.69040 | 44.33403 | 36956 ft | 475 kts | 183° |
| 2026-05-07 21:18 | 49.65708 | 44.33107 | 36787 ft | 480 kts | 183° |
| 2026-05-07 21:18 | 49.62371 | 44.32819 | 36747 ft | 483 kts | 182° |
| 2026-05-07 21:19 | 49.59014 | 44.32784 | 36941 ft | 482 kts | 176° |
| 2026-05-07 21:19 | 49.55656 | 44.33470 | 36956 ft | 482 kts | 166° |
| 2026-05-07 21:19 | 49.49311 | 44.36709 | 36960 ft | 478 kts | 157° |
| 2026-05-07 21:20 | 49.43209 | 44.40622 | 36962 ft | 478 kts | 155° |
| 2026-05-07 21:20 | 49.37103 | 44.44671 | 36959 ft | 479 kts | 155° |
| 2026-05-07 21:21 | 49.30960 | 44.48679 | 36957 ft | 478 kts | 155° |
| 2026-05-07 21:21 | 49.24852 | 44.52587 | 36959 ft | 479 kts | 156° |
| 2026-05-07 21:22 | 49.18688 | 44.56481 | 36961 ft | 478 kts | 156° |
| 2026-05-07 21:22 | 49.12552 | 44.60332 | 36963 ft | 479 kts | 156° |
| 2026-05-07 21:23 | 49.06421 | 44.64169 | 36971 ft | 479 kts | 156° |
| 2026-05-07 21:23 | 49.00222 | 44.68039 | 36963 ft | 480 kts | 156° |
| 2026-05-07 21:24 | 48.94059 | 44.71875 | 36974 ft | 481 kts | 156° |
| 2026-05-07 21:24 | 48.87897 | 44.75713 | 36965 ft | 479 kts | 155° |
| 2026-05-07 21:25 | 48.82053 | 44.80499 | 36953 ft | 476 kts | 145° |
| 2026-05-07 21:25 | 48.76715 | 44.86302 | 36971 ft | 475 kts | 140° |
| 2026-05-07 21:26 | 48.71534 | 44.92452 | 36975 ft | 474 kts | 139° |
| 2026-05-07 21:26 | 48.66386 | 44.98651 | 36973 ft | 474 kts | 139° |
| 2026-05-07 21:27 | 48.61198 | 45.04848 | 36968 ft | 473 kts | 139° |
| 2026-05-07 21:27 | 48.56027 | 45.10962 | 36971 ft | 473 kts | 140° |
| 2026-05-07 21:28 | 48.50855 | 45.17036 | 36965 ft | 473 kts | 140° |
| 2026-05-07 21:28 | 48.45671 | 45.23094 | 36968 ft | 473 kts | 140° |
| 2026-05-07 21:29 | 48.40423 | 45.29073 | 36960 ft | 473 kts | 143° |
| 2026-05-07 21:29 | 48.34730 | 45.34022 | 36961 ft | 476 kts | 150° |
| 2026-05-07 21:30 | 48.28749 | 45.38346 | 36957 ft | 477 kts | 152° |
| 2026-05-07 21:30 | 48.22748 | 45.42546 | 36965 ft | 475 kts | 153° |
| 2026-05-07 21:31 | 48.16812 | 45.46745 | 36969 ft | 475 kts | 152° |
| 2026-05-07 21:31 | 48.10855 | 45.51019 | 36970 ft | 475 kts | 152° |
| 2026-05-07 21:32 | 48.04891 | 45.55333 | 36964 ft | 475 kts | 152° |
| 2026-05-07 21:32 | 47.98961 | 45.59627 | 36965 ft | 474 kts | 152° |
| 2026-05-07 21:33 | 47.93038 | 45.63911 | 36965 ft | 474 kts | 152° |
| 2026-05-07 21:33 | 47.87101 | 45.68200 | 36953 ft | 475 kts | 152° |
| 2026-05-07 21:34 | 47.81117 | 45.72509 | 36954 ft | 476 kts | 152° |
| 2026-05-07 21:34 | 47.75184 | 45.76768 | 36955 ft | 477 kts | 152° |
| 2026-05-07 21:35 | 47.69231 | 45.81033 | 36960 ft | 476 kts | 153° |
| 2026-05-07 21:35 | 47.63253 | 45.85303 | 36952 ft | 476 kts | 153° |
| 2026-05-07 21:36 | 47.57322 | 45.89531 | 36949 ft | 475 kts | 153° |
| 2026-05-07 21:36 | 47.51341 | 45.93779 | 36956 ft | 475 kts | 153° |
| 2026-05-07 21:37 | 47.45406 | 45.97987 | 36955 ft | 476 kts | 153° |
| 2026-05-07 21:37 | 47.39406 | 46.02232 | 36949 ft | 476 kts | 153° |
| 2026-05-07 21:38 | 47.33480 | 46.06420 | 36942 ft | 475 kts | 153° |
| 2026-05-07 21:38 | 47.27504 | 46.10645 | 36939 ft | 474 kts | 153° |
| 2026-05-07 21:39 | 47.21587 | 46.14819 | 37239 ft | 467 kts | 153° |
| 2026-05-07 21:39 | 47.18704 | 46.16846 | 37735 ft | 458 kts | 153° |
| 2026-05-07 21:39 | 47.15816 | 46.18873 | 37909 ft | 458 kts | 154° |
| 2026-05-07 21:40 | 47.10039 | 46.22925 | 37945 ft | 465 kts | 153° |
| 2026-05-07 21:40 | 47.04760 | 46.28322 | 37940 ft | 468 kts | 134° |
| 2026-05-07 21:41 | 47.00649 | 46.35729 | 37941 ft | 470 kts | 124° |
| 2026-05-07 21:41 | 46.97078 | 46.43754 | 37940 ft | 468 kts | 121° |
| 2026-05-07 21:42 | 46.93658 | 46.51841 | 37950 ft | 468 kts | 121° |
| 2026-05-07 21:42 | 46.90237 | 46.59875 | 37951 ft | 469 kts | 121° |
| 2026-05-07 21:43 | 46.86746 | 46.67943 | 37956 ft | 470 kts | 122° |
| 2026-05-07 21:43 | 46.83229 | 46.75981 | 37956 ft | 470 kts | 122° |
| 2026-05-07 21:44 | 46.79709 | 46.83974 | 37890 ft | 471 kts | 122° |
| 2026-05-07 21:44 | 46.77927 | 46.88006 | 37696 ft | 470 kts | 122° |
| 2026-05-07 21:44 | 46.76165 | 46.91983 | 37511 ft | 467 kts | 122° |
| 2026-05-07 21:45 | 46.72631 | 46.99941 | 37660 ft | 469 kts | 122° |
| 2026-05-07 21:45 | 46.70874 | 47.03897 | 37831 ft | 470 kts | 122° |
| 2026-05-07 21:45 | 46.69102 | 47.07881 | 37949 ft | 471 kts | 122° |
| 2026-05-07 21:46 | 46.65575 | 47.15910 | 37946 ft | 471 kts | 122° |
| 2026-05-07 21:46 | 46.62093 | 47.23918 | 37943 ft | 471 kts | 122° |
| 2026-05-07 21:47 | 46.58574 | 47.32000 | 37943 ft | 472 kts | 122° |
| 2026-05-07 21:47 | 46.55069 | 47.40019 | 37944 ft | 472 kts | 122° |
| 2026-05-07 21:48 | 46.51569 | 47.47987 | 37939 ft | 471 kts | 122° |
| 2026-05-07 21:48 | 46.48037 | 47.55997 | 37932 ft | 470 kts | 122° |
| 2026-05-07 21:49 | 46.44526 | 47.63932 | 37923 ft | 471 kts | 122° |
| 2026-05-07 21:49 | 46.40974 | 47.71938 | 37934 ft | 473 kts | 123° |
| 2026-05-07 21:50 | 46.37420 | 47.79927 | 37875 ft | 474 kts | 123° |
| 2026-05-07 21:50 | 46.35642 | 47.83914 | 37620 ft | 466 kts | 123° |
| 2026-05-07 21:50 | 46.33913 | 47.87784 | 37417 ft | 463 kts | 123° |
| 2026-05-07 21:51 | 46.32164 | 47.91691 | 37214 ft | 462 kts | 122° |
| 2026-05-07 21:51 | 46.30433 | 47.95595 | 37019 ft | 464 kts | 120° |
| 2026-05-07 21:51 | 46.27770 | 48.04094 | 36937 ft | 465 kts | 108° |
| 2026-05-07 21:52 | 46.26067 | 48.13120 | 36936 ft | 467 kts | 103° |
| 2026-05-07 21:52 | 46.24666 | 48.22252 | 36935 ft | 467 kts | 102° |
| 2026-05-07 21:53 | 46.23314 | 48.31421 | 36927 ft | 467 kts | 102° |
| 2026-05-07 21:53 | 46.21947 | 48.40534 | 36921 ft | 468 kts | 102° |
| 2026-05-07 21:54 | 46.20262 | 48.49600 | 36922 ft | 468 kts | 112° |
| 2026-05-07 21:54 | 46.18704 | 48.53706 | 36924 ft | 470 kts | 126° |
| 2026-05-07 21:54 | 46.16547 | 48.57217 | 36913 ft | 470 kts | 137° |
| 2026-05-07 21:55 | 46.11169 | 48.62654 | 36919 ft | 471 kts | 150° |
| 2026-05-07 21:55 | 46.05146 | 48.66206 | 36903 ft | 470 kts | 163° |
| 2026-05-07 21:56 | 45.98833 | 48.68676 | 36909 ft | 470 kts | 167° |
| 2026-05-07 21:56 | 45.92505 | 48.70974 | 36916 ft | 469 kts | 166° |
| 2026-05-07 21:57 | 45.86186 | 48.73330 | 36913 ft | 469 kts | 166° |
| 2026-05-07 21:57 | 45.79887 | 48.75754 | 36921 ft | 470 kts | 166° |
| 2026-05-07 21:58 | 45.73604 | 48.78217 | 36926 ft | 468 kts | 165° |
| 2026-05-07 21:58 | 45.67332 | 48.80700 | 36927 ft | 468 kts | 166° |
| 2026-05-07 21:59 | 45.61079 | 48.83181 | 36930 ft | 464 kts | 166° |
| 2026-05-07 21:59 | 45.54834 | 48.85654 | 36938 ft | 464 kts | 166° |
| 2026-05-07 22:00 | 45.48637 | 48.88099 | 36931 ft | 464 kts | 166° |
| 2026-05-07 22:00 | 45.42405 | 48.90555 | 36942 ft | 463 kts | 166° |
| 2026-05-07 22:01 | 45.36189 | 48.92997 | 36936 ft | 465 kts | 166° |
| 2026-05-07 22:01 | 45.29963 | 48.95437 | 36948 ft | 463 kts | 166° |
| 2026-05-07 22:02 | 45.23779 | 48.97856 | 36951 ft | 463 kts | 166° |
| 2026-05-07 22:02 | 45.17533 | 49.00296 | 36956 ft | 463 kts | 166° |
| 2026-05-07 22:03 | 45.11351 | 49.02703 | 36954 ft | 463 kts | 166° |
| 2026-05-07 22:03 | 45.05106 | 49.05130 | 36969 ft | 464 kts | 166° |
| 2026-05-07 22:04 | 44.98929 | 49.07527 | 36966 ft | 464 kts | 166° |
| 2026-05-07 22:04 | 44.92665 | 49.09958 | 36964 ft | 463 kts | 166° |
| 2026-05-07 22:05 | 44.86459 | 49.12391 | 37068 ft | 464 kts | 166° |
| 2026-05-07 22:05 | 44.83343 | 49.13502 | 37347 ft | 461 kts | 170° |
| 2026-05-07 22:05 | 44.80191 | 49.14196 | 37562 ft | 459 kts | 176° |
| 2026-05-07 22:06 | 44.77007 | 49.14423 | 37735 ft | 458 kts | 182° |
| 2026-05-07 22:06 | 44.73824 | 49.14170 | 37927 ft | 456 kts | 189° |
| 2026-05-07 22:06 | 44.70804 | 49.13062 | 37967 ft | 451 kts | 206° |
| 2026-05-07 22:06 | 44.68212 | 49.10583 | 37985 ft | 448 kts | 226° |
| 2026-05-07 22:07 | 44.66428 | 49.07034 | 37987 ft | 449 kts | 246° |
| 2026-05-07 22:07 | 44.65641 | 49.02815 | 37990 ft | 451 kts | 265° |
| 2026-05-07 22:07 | 44.65831 | 48.98462 | 37994 ft | 455 kts | 278° |
| 2026-05-07 22:07 | 44.66441 | 48.94077 | 37980 ft | 457 kts | 279° |
| 2026-05-07 22:08 | 44.67468 | 48.85310 | 37989 ft | 454 kts | 275° |
| 2026-05-07 22:08 | 44.67795 | 48.76509 | 37984 ft | 453 kts | 269° |
| 2026-05-07 22:09 | 44.67564 | 48.67672 | 37989 ft | 452 kts | 265° |
| 2026-05-07 22:09 | 44.67048 | 48.58905 | 37996 ft | 452 kts | 264° |
| 2026-05-07 22:10 | 44.66410 | 48.50161 | 37993 ft | 453 kts | 263° |
| 2026-05-07 22:10 | 44.65723 | 48.41338 | 37997 ft | 452 kts | 263° |
| 2026-05-07 22:11 | 44.65024 | 48.32570 | 38002 ft | 453 kts | 262° |
| 2026-05-07 22:11 | 44.64319 | 48.23807 | 37999 ft | 453 kts | 262° |
| 2026-05-07 22:12 | 44.63611 | 48.15058 | 38010 ft | 453 kts | 262° |
| 2026-05-07 22:12 | 44.62894 | 48.06282 | 38008 ft | 453 kts | 263° |
| 2026-05-07 22:13 | 44.62169 | 47.97492 | 38013 ft | 453 kts | 263° |
| 2026-05-07 22:13 | 44.61439 | 47.88699 | 38009 ft | 454 kts | 263° |
| 2026-05-07 22:14 | 44.60706 | 47.79975 | 38014 ft | 454 kts | 263° |
| 2026-05-07 22:14 | 44.59961 | 47.71184 | 38011 ft | 456 kts | 263° |
| 2026-05-07 22:15 | 44.59206 | 47.62343 | 38015 ft | 455 kts | 263° |
| 2026-05-07 22:15 | 44.58447 | 47.53561 | 38020 ft | 456 kts | 263° |
| 2026-05-07 22:16 | 44.57686 | 47.44812 | 38022 ft | 454 kts | 263° |
| 2026-05-07 22:16 | 44.56913 | 47.36032 | 38037 ft | 456 kts | 263° |
| 2026-05-07 22:17 | 44.56132 | 47.27219 | 38027 ft | 456 kts | 262° |
| 2026-05-07 22:17 | 44.55343 | 47.18402 | 38033 ft | 456 kts | 262° |
| 2026-05-07 22:18 | 44.54145 | 47.05164 | 38031 ft | 459 kts | 262° |
| 2026-05-07 22:19 | 44.53333 | 46.96285 | 38038 ft | 456 kts | 262° |
| 2026-05-07 22:19 | 44.52524 | 46.87520 | 38044 ft | 456 kts | 262° |
| 2026-05-07 22:20 | 44.51701 | 46.78680 | 38038 ft | 458 kts | 262° |
| 2026-05-07 22:20 | 44.50875 | 46.69871 | 38048 ft | 458 kts | 262° |
| 2026-05-07 22:21 | 44.50038 | 46.61028 | 38062 ft | 458 kts | 262° |
| 2026-05-07 22:21 | 44.49195 | 46.52203 | 38039 ft | 457 kts | 262° |
| 2026-05-07 22:22 | 44.48353 | 46.43446 | 38039 ft | 458 kts | 262° |
| 2026-05-07 22:22 | 44.47489 | 46.34546 | 38049 ft | 459 kts | 261° |
| 2026-05-07 22:23 | 44.46632 | 46.25788 | 38061 ft | 458 kts | 261° |
| 2026-05-07 22:23 | 44.45762 | 46.16960 | 38059 ft | 459 kts | 261° |
| 2026-05-07 22:24 | 44.44888 | 46.08174 | 38067 ft | 457 kts | 262° |
| 2026-05-07 22:24 | 44.44002 | 45.99348 | 38067 ft | 458 kts | 261° |
| 2026-05-07 22:25 | 44.43112 | 45.90538 | 38061 ft | 457 kts | 262° |
| 2026-05-07 22:25 | 44.42219 | 45.81775 | 38069 ft | 459 kts | 261° |
| 2026-05-07 22:26 | 44.41314 | 45.72960 | 38074 ft | 461 kts | 262° |
| 2026-05-07 22:26 | 44.40402 | 45.64141 | 38080 ft | 460 kts | 262° |
| 2026-05-07 22:27 | 44.39476 | 45.55251 | 38078 ft | 463 kts | 262° |
| 2026-05-07 22:27 | 44.38546 | 45.46399 | 38079 ft | 461 kts | 262° |
| 2026-05-07 22:28 | 44.37609 | 45.37550 | 38084 ft | 460 kts | 262° |
| 2026-05-07 22:28 | 44.36664 | 45.28679 | 38088 ft | 463 kts | 261° |
| 2026-05-07 22:29 | 44.35713 | 45.19834 | 38088 ft | 462 kts | 261° |
| 2026-05-07 22:29 | 44.34752 | 45.10965 | 38093 ft | 463 kts | 261° |
| 2026-05-07 22:30 | 44.33787 | 45.02119 | 38100 ft | 464 kts | 261° |
| 2026-05-07 22:30 | 44.32810 | 44.93226 | 38097 ft | 464 kts | 261° |
| 2026-05-07 22:31 | 44.31829 | 44.84371 | 38100 ft | 463 kts | 261° |
| 2026-05-07 22:31 | 44.30838 | 44.75480 | 38096 ft | 465 kts | 261° |
| 2026-05-07 22:32 | 44.29838 | 44.66584 | 38108 ft | 463 kts | 261° |
| 2026-05-07 22:32 | 44.28841 | 44.57774 | 38096 ft | 464 kts | 261° |
| 2026-05-07 22:33 | 44.27833 | 44.48921 | 38102 ft | 465 kts | 261° |
| 2026-05-07 22:33 | 44.26808 | 44.40000 | 38099 ft | 464 kts | 261° |
| 2026-05-07 22:34 | 44.25781 | 44.31117 | 38104 ft | 466 kts | 261° |
| 2026-05-07 22:34 | 44.24749 | 44.22252 | 38112 ft | 465 kts | 261° |
| 2026-05-07 22:35 | 44.23709 | 44.13382 | 38116 ft | 464 kts | 261° |
| 2026-05-07 22:35 | 44.22666 | 44.04537 | 38122 ft | 465 kts | 261° |
| 2026-05-07 22:36 | 44.21609 | 43.95644 | 38115 ft | 464 kts | 261° |
| 2026-05-07 22:36 | 44.20549 | 43.86793 | 38123 ft | 464 kts | 261° |
| 2026-05-07 22:37 | 44.19482 | 43.77945 | 38125 ft | 465 kts | 261° |
| 2026-05-07 22:37 | 44.18405 | 43.69066 | 38125 ft | 467 kts | 261° |
| 2026-05-07 22:38 | 44.17321 | 43.60196 | 38118 ft | 467 kts | 261° |
| 2026-05-07 22:38 | 44.16229 | 43.51308 | 38136 ft | 469 kts | 261° |
| 2026-05-07 22:39 | 44.15121 | 43.42344 | 38132 ft | 474 kts | 261° |
| 2026-05-07 22:39 | 44.13995 | 43.33315 | 38129 ft | 473 kts | 260° |
| 2026-05-07 22:40 | 44.12859 | 43.24266 | 38132 ft | 473 kts | 260° |
| 2026-05-07 22:40 | 44.11724 | 43.15283 | 38131 ft | 472 kts | 260° |
| 2026-05-07 22:41 | 44.10586 | 43.06329 | 38137 ft | 471 kts | 261° |
| 2026-05-07 22:41 | 44.09447 | 42.97407 | 38139 ft | 471 kts | 260° |
| 2026-05-07 22:42 | 44.08290 | 42.88431 | 38130 ft | 475 kts | 260° |
| 2026-05-07 22:42 | 44.07120 | 42.79404 | 38150 ft | 476 kts | 260° |
| 2026-05-07 22:43 | 44.05949 | 42.70428 | 38159 ft | 474 kts | 260° |
| 2026-05-07 22:43 | 44.04767 | 42.61429 | 38174 ft | 474 kts | 261° |
| 2026-05-07 22:44 | 44.03586 | 42.52490 | 38163 ft | 475 kts | 261° |
| 2026-05-07 22:44 | 44.02385 | 42.43455 | 38166 ft | 475 kts | 261° |
| 2026-05-07 22:45 | 44.01184 | 42.34486 | 38170 ft | 475 kts | 260° |
| 2026-05-07 22:45 | 43.99974 | 42.25504 | 38201 ft | 476 kts | 260° |
| 2026-05-07 22:46 | 43.98750 | 42.16457 | 38185 ft | 476 kts | 260° |
| 2026-05-07 22:46 | 43.97522 | 42.07451 | 38193 ft | 476 kts | 260° |
| 2026-05-07 22:47 | 43.96299 | 41.98543 | 38193 ft | 461 kts | 260° |
| 2026-05-07 22:47 | 43.95103 | 41.89887 | 38202 ft | 456 kts | 260° |
| 2026-05-07 22:48 | 43.93902 | 41.81224 | 38203 ft | 461 kts | 260° |
| 2026-05-07 22:48 | 43.92690 | 41.72545 | 38207 ft | 459 kts | 260° |
| 2026-05-07 22:49 | 43.91476 | 41.63899 | 38193 ft | 461 kts | 260° |
| 2026-05-07 22:49 | 43.90248 | 41.55192 | 38192 ft | 461 kts | 260° |
| 2026-05-07 22:50 | 43.89016 | 41.46520 | 38074 ft | 455 kts | 260° |
| 2026-05-07 22:50 | 43.88404 | 41.42239 | 37778 ft | 450 kts | 260° |
| 2026-05-07 22:50 | 43.87800 | 41.38020 | 37349 ft | 449 kts | 260° |
| 2026-05-07 22:50 | 43.87194 | 41.33794 | 36785 ft | 453 kts | 259° |
| 2026-05-07 22:51 | 43.86575 | 41.29488 | 36179 ft | 457 kts | 259° |
| 2026-05-07 22:51 | 43.85958 | 41.25205 | 35515 ft | 465 kts | 259° |
| 2026-05-07 22:51 | 43.85318 | 41.20775 | 34601 ft | 479 kts | 259° |
| 2026-05-07 22:51 | 43.84665 | 41.16265 | 33895 ft | 481 kts | 259° |
| 2026-05-07 22:52 | 43.83999 | 41.11676 | 33077 ft | 484 kts | 259° |
| 2026-05-07 22:52 | 43.83338 | 41.07138 | 32274 ft | 486 kts | 259° |
| 2026-05-07 22:52 | 43.82667 | 41.02543 | 31663 ft | 483 kts | 259° |
| 2026-05-07 22:52 | 43.82003 | 40.98016 | 31161 ft | 479 kts | 260° |
| 2026-05-07 22:53 | 43.81347 | 40.93563 | 30640 ft | 474 kts | 260° |
| 2026-05-07 22:53 | 43.80692 | 40.89135 | 30098 ft | 470 kts | 260° |
| 2026-05-07 22:53 | 43.80040 | 40.84736 | 29562 ft | 465 kts | 260° |
| 2026-05-07 22:53 | 43.79388 | 40.80347 | 29038 ft | 461 kts | 260° |
| 2026-05-07 22:54 | 43.78755 | 40.76094 | 28509 ft | 456 kts | 260° |
| 2026-05-07 22:54 | 43.78120 | 40.71836 | 27984 ft | 452 kts | 260° |
| 2026-05-07 22:54 | 43.77486 | 40.67596 | 27461 ft | 447 kts | 260° |
| 2026-05-07 22:54 | 43.76864 | 40.63443 | 26944 ft | 443 kts | 260° |
| 2026-05-07 22:55 | 43.76239 | 40.59278 | 26419 ft | 439 kts | 260° |
| 2026-05-07 22:55 | 43.75626 | 40.55201 | 25898 ft | 435 kts | 260° |
| 2026-05-07 22:55 | 43.75014 | 40.51148 | 25375 ft | 430 kts | 260° |
| 2026-05-07 22:55 | 43.74400 | 40.47094 | 24850 ft | 426 kts | 260° |
| 2026-05-07 22:56 | 43.73797 | 40.43117 | 24340 ft | 421 kts | 260° |
| 2026-05-07 22:56 | 43.73207 | 40.39238 | 23848 ft | 417 kts | 260° |
| 2026-05-07 22:56 | 43.72606 | 40.35299 | 23326 ft | 413 kts | 260° |
| 2026-05-07 22:56 | 43.72023 | 40.31486 | 22835 ft | 409 kts | 259° |
| 2026-05-07 22:57 | 43.71431 | 40.27624 | 22322 ft | 405 kts | 259° |
| 2026-05-07 22:57 | 43.70848 | 40.23829 | 21816 ft | 401 kts | 259° |
| 2026-05-07 22:57 | 43.70227 | 40.20144 | 21332 ft | 397 kts | 256° |
| 2026-05-07 22:57 | 43.69313 | 40.16523 | 20820 ft | 395 kts | 245° |
| 2026-05-07 22:58 | 43.67907 | 40.13312 | 20328 ft | 392 kts | 232° |
| 2026-05-07 22:58 | 43.66053 | 40.10565 | 20220 ft | 391 kts | 221° |
| 2026-05-07 22:58 | 43.63949 | 40.08161 | 20206 ft | 398 kts | 216° |
| 2026-05-07 22:58 | 43.61634 | 40.06073 | 19878 ft | 397 kts | 208° |
| 2026-05-07 22:59 | 43.59200 | 40.04351 | 19371 ft | 392 kts | 204° |
| 2026-05-07 22:59 | 43.56701 | 40.02811 | 18844 ft | 388 kts | 201° |
| 2026-05-07 22:59 | 43.54210 | 40.01372 | 18354 ft | 385 kts | 201° |
| 2026-05-07 22:59 | 43.51761 | 39.99968 | 17847 ft | 382 kts | 201° |
| 2026-05-07 23:00 | 43.49347 | 39.98554 | 17337 ft | 379 kts | 202° |
| 2026-05-07 23:00 | 43.46932 | 39.97104 | 16815 ft | 376 kts | 202° |
| 2026-05-07 23:00 | 43.44535 | 39.95693 | 16256 ft | 374 kts | 200° |
| 2026-05-07 23:00 | 43.42121 | 39.94477 | 15719 ft | 371 kts | 198° |
| 2026-05-07 23:01 | 43.39659 | 39.93374 | 15206 ft | 367 kts | 197° |
| 2026-05-07 23:01 | 43.37228 | 39.92332 | 14746 ft | 362 kts | 197° |
| 2026-05-07 23:01 | 43.34864 | 39.91318 | 14393 ft | 354 kts | 197° |
| 2026-05-07 23:01 | 43.32543 | 39.90305 | 13859 ft | 353 kts | 197° |
| 2026-05-07 23:02 | 43.30182 | 39.89256 | 13231 ft | 353 kts | 198° |
| 2026-05-07 23:02 | 43.27864 | 39.88212 | 12746 ft | 349 kts | 198° |
| 2026-05-07 23:02 | 43.25579 | 39.87176 | 12285 ft | 345 kts | 198° |
| 2026-05-07 23:02 | 43.23300 | 39.86140 | 11819 ft | 342 kts | 198° |
| 2026-05-07 23:03 | 43.21064 | 39.85126 | 11337 ft | 339 kts | 198° |
| 2026-05-07 23:03 | 43.18849 | 39.84124 | 10885 ft | 336 kts | 198° |
| 2026-05-07 23:03 | 43.16634 | 39.83122 | 10494 ft | 331 kts | 198° |
| 2026-05-07 23:03 | 43.14498 | 39.82157 | 10298 ft | 320 kts | 198° |
| 2026-05-07 23:04 | 43.12431 | 39.81223 | 10199 ft | 306 kts | 198° |
| 2026-05-07 23:04 | 43.10424 | 39.80317 | 10059 ft | 294 kts | 198° |
| 2026-05-07 23:04 | 43.08521 | 39.79427 | 9724 ft | 291 kts | 201° |
| 2026-05-07 23:04 | 43.06749 | 39.78131 | 9342 ft | 289 kts | 219° |
| 2026-05-07 23:05 | 43.05528 | 39.76020 | 8995 ft | 285 kts | 248° |
| 2026-05-07 23:05 | 43.05121 | 39.73395 | 8634 ft | 280 kts | 272° |
| 2026-05-07 23:05 | 43.05379 | 39.70826 | 8289 ft | 276 kts | 285° |
| 2026-05-07 23:05 | 43.05908 | 39.68322 | 7926 ft | 273 kts | 289° |
| 2026-05-07 23:06 | 43.06506 | 39.65845 | 7589 ft | 271 kts | 291° |
| 2026-05-07 23:06 | 43.07348 | 39.63592 | 7243 ft | 267 kts | 308° |
| 2026-05-07 23:06 | 43.08724 | 39.61927 | 6920 ft | 262 kts | 334° |
| 2026-05-07 23:06 | 43.10443 | 39.61243 | 6586 ft | 261 kts | 355° |
| 2026-05-07 23:07 | 43.12255 | 39.61311 | 6249 ft | 258 kts | 9° |
| 2026-05-07 23:07 | 43.14018 | 39.61773 | 5910 ft | 257 kts | 13° |
| 2026-05-07 23:07 | 43.15744 | 39.62315 | 5612 ft | 254 kts | 14° |
| 2026-05-07 23:07 | 43.17459 | 39.62844 | 5488 ft | 246 kts | 13° |
| 2026-05-07 23:08 | 43.19117 | 39.63331 | 5418 ft | 238 kts | 12° |
| 2026-05-07 23:08 | 43.20707 | 39.63784 | 5345 ft | 229 kts | 13° |
| 2026-05-07 23:08 | 43.22205 | 39.64433 | 5267 ft | 222 kts | 28° |
| 2026-05-07 23:08 | 43.23328 | 39.65832 | 5068 ft | 220 kts | 62° |
| 2026-05-07 23:09 | 43.23849 | 39.67802 | 4797 ft | 220 kts | 75° |
| 2026-05-07 23:09 | 43.24228 | 39.69826 | 4508 ft | 220 kts | 74° |
| 2026-05-07 23:09 | 43.24649 | 39.71813 | 4240 ft | 217 kts | 72° |
| 2026-05-07 23:09 | 43.25091 | 39.73736 | 3984 ft | 205 kts | 72° |
| 2026-05-07 23:10 | 43.25514 | 39.75536 | 3747 ft | 195 kts | 72° |
| 2026-05-07 23:10 | 43.25912 | 39.77250 | 3510 ft | 185 kts | 72° |
| 2026-05-07 23:10 | 43.26294 | 39.78898 | 3330 ft | 175 kts | 72° |
| 2026-05-07 23:10 | 43.26774 | 39.80392 | 3203 ft | 168 kts | 59° |
| 2026-05-07 23:11 | 43.27403 | 39.81722 | 3092 ft | 162 kts | 54° |
| 2026-05-07 23:11 | 43.28157 | 39.82816 | 2927 ft | 158 kts | 38° |
| 2026-05-07 23:11 | 43.29069 | 39.83665 | 2802 ft | 157 kts | 32° |
| 2026-05-07 23:11 | 43.30014 | 39.84426 | 2670 ft | 157 kts | 30° |
| 2026-05-07 23:12 | 43.30960 | 39.85145 | 2485 ft | 155 kts | 29° |
| 2026-05-07 23:12 | 43.31908 | 39.85854 | 2355 ft | 153 kts | 29° |
| 2026-05-07 23:12 | 43.32848 | 39.86556 | 2180 ft | 151 kts | 29° |
| 2026-05-07 23:12 | 43.33744 | 39.87224 | 2024 ft | 145 kts | 29° |
| 2026-05-07 23:13 | 43.34630 | 39.87884 | 1980 ft | 143 kts | 29° |
| 2026-05-07 23:13 | 43.35506 | 39.88539 | 1858 ft | 146 kts | 29° |
| 2026-05-07 23:13 | 43.36422 | 39.89222 | 1643 ft | 148 kts | 29° |
| 2026-05-07 23:13 | 43.37315 | 39.89887 | 1478 ft | 145 kts | 29° |
| 2026-05-07 23:14 | 43.38207 | 39.90546 | 1264 ft | 145 kts | 28° |
| 2026-05-07 23:14 | 43.39086 | 39.91202 | 1078 ft | 144 kts | 29° |
| 2026-05-07 23:14 | 43.39976 | 39.91859 | 885 ft | 143 kts | 29° |
| 2026-05-07 23:14 | 43.40842 | 39.92513 | 694 ft | 143 kts | 28° |
| 2026-05-07 23:15 | 43.41715 | 39.93171 | 470 ft | 144 kts | 29° |
| 2026-05-07 23:15 | 43.42580 | 39.93814 | 281 ft | 138 kts | 29° |
| 2026-05-07 23:15 | 43.43426 | 39.94446 | 105 ft | 136 kts | 28° |
| 2026-05-07 23:15 | 43.44200 | 39.95034 | 54 ft | 107 kts | 29° |
| 2026-05-07 23:16 | 43.44616 | 39.95348 | 59 ft | 43 kts | 29° |
| 2026-05-07 23:16 | 43.44904 | 39.95560 | 64 ft | 35 kts | 28° |
| 2026-05-07 23:16 | 43.45028 | 39.95535 | 66 ft | 5 kts | 332° |
| 2026-05-07 23:16 | 43.45050 | 39.95518 | 67 ft | 0 kts | 330° |
| 2026-05-07 23:17 | 43.45063 | 39.95495 | 67 ft | 7 kts | 281° |
| 2026-05-07 23:17 | 43.45035 | 39.95390 | 64 ft | 12 kts | 246° |
| 2026-05-07 23:17 | 43.44992 | 39.95265 | 61 ft | 14 kts | 244° |
| 2026-05-07 23:17 | 43.44947 | 39.95127 | 59 ft | 15 kts | 262° |
| 2026-05-07 23:18 | 43.44945 | 39.94978 | 58 ft | 19 kts | 245° |
| 2026-05-07 23:18 | 43.44896 | 39.94831 | 57 ft | 14 kts | 244° |
| 2026-05-07 23:18 | 43.44842 | 39.94674 | 56 ft | 17 kts | 245° |
| 2026-05-07 23:18 | 43.44790 | 39.94526 | 55 ft | 12 kts | 244° |
| 2026-05-07 23:19 | 43.44752 | 39.94417 | 56 ft | 11 kts | 245° |
| 2026-05-07 23:19 | 43.44738 | 39.94362 | 56 ft | 0 kts | 311° |
| 2026-05-07 23:19 | 43.44768 | 39.94329 | 57 ft | 6 kts | 333° |
| 2026-05-07 23:19 | 43.44790 | 39.94315 | 58 ft | 0 kts | 334° |
| 2026-05-07 23:20 | 43.44796 | 39.94311 | 58 ft | 1 kts | 334° |
| 2026-05-07 23:20 | 43.44797 | 39.94310 | 58 ft | 0 kts | 334° |